createdAt,value
2023-01-19T00:00:10.863Z,77.90
2023-01-19T00:02:14.705Z,77.84
2023-01-19T00:04:17.983Z,77.48
2023-01-19T00:06:21.348Z,77.51
2023-01-19T00:08:24.729Z,77.38
2023-01-19T00:10:28.020Z,77.21
2023-01-19T00:12:32.716Z,77.01
2023-01-19T00:14:36.112Z,76.97
2023-01-19T00:16:39.285Z,77.12
2023-01-19T00:18:42.498Z,76.78
2023-01-19T00:20:46.955Z,76.68
2023-01-19T00:22:51.015Z,76.50
2023-01-19T00:24:54.311Z,76.47
2023-01-19T00:26:58.172Z,76.51
2023-01-19T00:29:03.060Z,76.35
2023-01-19T00:31:06.507Z,76.37
2023-01-19T00:33:10.183Z,76.19
2023-01-19T00:35:13.405Z,76.17
2023-01-19T00:37:17.630Z,76.04
2023-01-19T00:39:20.879Z,75.85
2023-01-19T00:41:44.212Z,75.72
2023-01-19T00:43:47.529Z,75.66
2023-01-19T00:45:52.720Z,75.74
2023-01-19T00:47:57.326Z,75.64
2023-01-19T00:50:00.651Z,75.68
2023-01-19T00:52:03.913Z,75.63
2023-01-19T00:54:10.445Z,75.58
2023-01-19T00:56:13.712Z,75.45
2023-01-19T00:58:16.948Z,75.50
2023-01-19T01:00:21.591Z,75.48
2023-01-19T01:02:26.561Z,75.50
2023-01-19T01:04:30.044Z,75.42
2023-01-19T01:06:33.335Z,75.22
2023-01-19T01:08:36.578Z,75.30
2023-01-19T01:10:39.829Z,75.30
2023-01-19T01:12:57.333Z,75.28
2023-01-19T01:15:09.380Z,75.25
2023-01-19T01:17:14.318Z,75.03
2023-01-19T01:19:19.439Z,75.19
2023-01-19T01:21:23.738Z,75.33
2023-01-19T01:23:26.936Z,75.12
2023-01-19T01:25:31.235Z,75.04
2023-01-19T01:27:34.468Z,75.03
2023-01-19T01:29:37.732Z,74.99
2023-01-19T01:31:41.117Z,75.07
2023-01-19T01:33:44.377Z,74.84
2023-01-19T01:35:49.951Z,75.17
2023-01-19T01:37:53.164Z,74.98
2023-01-19T01:39:56.521Z,75.13
2023-01-19T01:41:59.766Z,75.06
2023-01-19T01:44:06.307Z,75.04
2023-01-19T01:46:09.757Z,74.94
2023-01-19T01:48:17.378Z,74.92
2023-01-19T01:50:23.718Z,74.91
2023-01-19T01:52:30.855Z,74.93
2023-01-19T01:54:34.969Z,74.94
2023-01-19T01:56:42.732Z,74.95
2023-01-19T01:58:46.546Z,74.99
2023-01-19T02:01:07.443Z,75.03
2023-01-19T02:03:10.851Z,74.90
2023-01-19T02:05:18.418Z,75.10
2023-01-19T02:07:45.140Z,74.91
2023-01-19T02:10:07.234Z,74.93
2023-01-19T02:12:27.847Z,74.93
2023-01-19T02:14:31.108Z,74.96
2023-01-19T02:16:34.968Z,74.97
2023-01-19T02:18:38.977Z,74.95
2023-01-19T02:20:46.491Z,74.96
2023-01-19T02:22:50.835Z,74.92
2023-01-19T02:24:55.804Z,75.09
2023-01-19T02:26:59.997Z,75.08
2023-01-19T02:29:05.370Z,75.13
2023-01-19T02:31:08.598Z,74.99
2023-01-19T02:33:11.911Z,75.07
2023-01-19T02:35:15.348Z,75.12
2023-01-19T02:37:20.069Z,75.22
2023-01-19T02:39:28.423Z,75.14
2023-01-19T02:41:39.962Z,75.07
2023-01-19T02:43:44.032Z,75.13
2023-01-19T02:45:48.337Z,75.05
2023-01-19T02:47:52.973Z,75.14
2023-01-19T02:49:57.259Z,75.27
2023-01-19T02:52:01.464Z,75.31
2023-01-19T02:54:20.227Z,75.26
2023-01-19T02:56:49.173Z,75.33
2023-01-19T02:59:02.506Z,75.38
2023-01-19T03:01:14.726Z,75.34
2023-01-19T03:03:30.814Z,75.32
2023-01-19T03:05:46.060Z,75.51
2023-01-19T03:07:55.117Z,75.45
2023-01-19T03:10:04.508Z,75.54
2023-01-19T03:12:16.071Z,75.48
2023-01-19T03:14:22.967Z,75.48
2023-01-19T03:16:31.862Z,75.52
2023-01-19T03:18:38.264Z,75.43
2023-01-19T03:20:43.158Z,75.61
2023-01-19T03:22:50.322Z,75.78
2023-01-19T03:24:55.632Z,75.53
2023-01-19T03:27:03.807Z,75.64
2023-01-19T03:29:11.610Z,75.79
2023-01-19T03:31:18.745Z,75.73
2023-01-19T03:33:27.506Z,75.80
2023-01-19T03:35:35.297Z,76.03
2023-01-19T03:37:42.253Z,76.00
2023-01-19T03:39:45.612Z,75.80
2023-01-19T03:41:51.324Z,76.00
2023-01-19T03:43:57.742Z,76.01
2023-01-19T03:46:04.272Z,76.05
2023-01-19T03:48:08.631Z,76.15
2023-01-19T03:50:19.744Z,76.21
2023-01-19T03:52:29.690Z,76.14
2023-01-19T03:54:33.383Z,76.23
2023-01-19T03:56:36.618Z,76.38
2023-01-19T03:58:39.794Z,76.30
2023-01-19T04:00:42.995Z,76.49
2023-01-19T04:02:47.548Z,76.40
2023-01-19T04:04:51.216Z,76.57
2023-01-19T04:06:54.481Z,76.67
2023-01-19T04:08:57.642Z,76.71
2023-01-19T04:11:00.809Z,76.70
2023-01-19T04:13:04.691Z,76.79
2023-01-19T04:15:08.904Z,76.83
2023-01-19T04:17:12.150Z,77.02
2023-01-19T04:19:16.704Z,76.98
2023-01-19T04:21:21.412Z,77.16
2023-01-19T04:23:25.142Z,77.08
2023-01-19T04:25:28.431Z,77.01
2023-01-19T04:27:31.627Z,77.07
2023-01-19T04:29:34.804Z,77.26
2023-01-19T04:31:38.053Z,77.18
2023-01-19T04:33:41.344Z,77.29
2023-01-19T04:35:46.340Z,77.54
2023-01-19T04:37:49.660Z,77.60
2023-01-19T04:39:52.867Z,77.61
2023-01-19T04:41:57.466Z,77.46
2023-01-19T04:44:01.961Z,77.76
2023-01-19T04:46:05.540Z,77.59
2023-01-19T04:48:08.879Z,77.60
2023-01-19T04:50:13.172Z,77.70
2023-01-19T04:52:17.750Z,77.74
2023-01-19T04:54:21.032Z,77.66
2023-01-19T04:56:24.541Z,77.78
2023-01-19T04:58:27.886Z,77.96
2023-01-19T05:00:31.122Z,77.98
2023-01-19T05:02:34.527Z,78.07
2023-01-19T05:04:37.711Z,77.89
2023-01-19T05:06:40.974Z,77.99
2023-01-19T05:08:45.668Z,78.10
2023-01-19T05:10:49.619Z,78.16
2023-01-19T05:12:52.830Z,78.21
2023-01-19T05:14:56.203Z,78.21
2023-01-19T05:17:00.555Z,78.43
2023-01-19T05:19:03.798Z,78.36
2023-01-19T05:21:07.920Z,78.40
2023-01-19T05:23:11.329Z,78.45
2023-01-19T05:25:16.046Z,78.45
2023-01-19T05:27:19.224Z,78.27
2023-01-19T05:29:22.501Z,78.44
2023-01-19T05:31:25.861Z,78.47
2023-01-19T05:33:29.189Z,78.35
2023-01-19T05:35:36.124Z,78.60
2023-01-19T05:37:39.732Z,78.74
2023-01-19T05:39:42.921Z,78.80
2023-01-19T05:41:47.819Z,78.66
2023-01-19T05:43:50.996Z,78.76
2023-01-19T05:45:54.764Z,78.92
2023-01-19T05:47:58.287Z,78.98
2023-01-19T05:50:01.639Z,78.82
2023-01-19T05:52:05.132Z,78.97
2023-01-19T05:54:10.088Z,79.15
2023-01-19T05:56:13.250Z,78.98
2023-01-19T05:58:17.837Z,79.23
2023-01-19T06:00:21.792Z,79.20
2023-01-19T06:02:28.690Z,79.23
2023-01-19T06:04:32.281Z,79.26
2023-01-19T06:06:35.481Z,79.38
2023-01-19T06:08:38.904Z,79.43
2023-01-19T06:10:42.083Z,79.47
2023-01-19T06:12:46.071Z,79.65
2023-01-19T06:14:50.958Z,79.74
2023-01-19T06:16:54.281Z,79.92
2023-01-19T06:18:57.509Z,79.90
2023-01-19T06:21:03.659Z,80.16
2023-01-19T06:23:06.913Z,80.23
2023-01-19T06:25:11.930Z,80.56
2023-01-19T06:27:15.470Z,80.62
2023-01-19T06:29:18.986Z,80.50
2023-01-19T06:31:23.698Z,80.45
2023-01-19T06:33:27.943Z,80.80
2023-01-19T06:35:31.136Z,80.84
2023-01-19T06:37:34.420Z,80.97
2023-01-19T06:39:38.022Z,81.19
2023-01-19T06:41:41.691Z,81.10
2023-01-19T06:43:44.981Z,81.07
2023-01-19T06:45:48.372Z,81.03
2023-01-19T06:47:53.217Z,81.27
2023-01-19T06:49:57.685Z,81.38
2023-01-19T06:52:01.215Z,81.38
2023-01-19T06:54:04.581Z,81.38
2023-01-19T06:56:09.423Z,81.52
2023-01-19T06:58:13.624Z,81.67
2023-01-19T07:00:17.786Z,81.50
2023-01-19T07:02:26.104Z,81.55
2023-01-19T07:04:33.929Z,81.72
2023-01-19T07:06:37.374Z,81.73
2023-01-19T07:08:41.083Z,81.77
2023-01-19T07:11:26.404Z,81.96
2023-01-19T07:13:07.499Z,81.96
2023-01-19T07:15:11.786Z,82.07
2023-01-19T07:17:15.018Z,82.13
2023-01-19T07:19:18.521Z,82.15
2023-01-19T07:21:23.542Z,82.17
2023-01-19T07:23:30.197Z,82.15
2023-01-19T07:25:33.429Z,82.27
2023-01-19T07:27:36.807Z,82.29
2023-01-19T07:29:40.132Z,82.44
2023-01-19T07:31:43.587Z,82.32
2023-01-19T07:33:47.591Z,82.34
2023-01-19T07:35:52.027Z,82.58
2023-01-19T07:37:56.710Z,82.53
2023-01-19T07:40:00.332Z,82.65
2023-01-19T07:42:03.582Z,82.72
2023-01-19T07:44:08.717Z,82.73
2023-01-19T07:46:11.958Z,82.65
2023-01-19T07:48:15.177Z,82.72
2023-01-19T07:50:21.432Z,82.62
2023-01-19T07:52:25.102Z,82.54
2023-01-19T07:54:29.780Z,82.77
2023-01-19T07:56:33.930Z,82.93
2023-01-19T07:58:37.478Z,82.94
2023-01-19T08:00:40.795Z,82.87
2023-01-19T08:02:44.107Z,83.00
2023-01-19T08:04:49.172Z,82.96
2023-01-19T08:06:52.511Z,82.97
2023-01-19T08:08:55.748Z,82.96
2023-01-19T08:11:00.948Z,82.90
2023-01-19T08:13:04.293Z,82.89
2023-01-19T08:15:08.839Z,82.76
2023-01-19T08:17:13.926Z,82.77
2023-01-19T08:19:19.294Z,82.60
2023-01-19T08:21:22.617Z,82.78
2023-01-19T08:23:25.838Z,82.76
2023-01-19T08:25:33.880Z,82.56
2023-01-19T08:27:38.525Z,82.69
2023-01-19T08:29:41.994Z,82.44
2023-01-19T08:31:45.323Z,82.50
2023-01-19T08:33:48.586Z,82.53
2023-01-19T08:35:53.015Z,82.62
2023-01-19T08:37:56.255Z,82.42
2023-01-19T08:39:59.461Z,82.34
2023-01-19T08:42:02.770Z,82.18
2023-01-19T08:44:07.441Z,82.06
2023-01-19T08:46:10.846Z,82.15
2023-01-19T08:48:14.645Z,81.88
2023-01-19T08:50:18.575Z,81.65
2023-01-19T08:52:21.728Z,81.78
2023-01-19T08:54:24.985Z,81.77
2023-01-19T08:56:28.480Z,81.59
2023-01-19T08:58:31.687Z,81.30
2023-01-19T09:00:38.881Z,81.13
2023-01-19T09:02:42.104Z,81.04
2023-01-19T09:04:45.336Z,80.79
2023-01-19T09:06:48.779Z,80.77
2023-01-19T09:08:52.102Z,80.88
2023-01-19T09:10:55.479Z,80.87
2023-01-19T09:12:58.798Z,80.81
2023-01-19T09:15:02.015Z,80.70
2023-01-19T09:17:07.543Z,80.64
2023-01-19T09:19:10.769Z,80.78
2023-01-19T09:21:15.153Z,80.76
2023-01-19T09:23:21.217Z,80.82
2023-01-19T09:25:24.514Z,80.76
2023-01-19T09:27:27.755Z,80.80
2023-01-19T09:29:30.979Z,80.93
2023-01-19T09:31:35.560Z,81.00
2023-01-19T09:33:40.244Z,80.99
2023-01-19T09:35:44.531Z,81.08
2023-01-19T09:37:48.224Z,81.07
2023-01-19T09:39:51.561Z,81.08
2023-01-19T09:42:05.977Z,81.16
2023-01-19T09:44:19.407Z,81.05
2023-01-19T09:46:28.594Z,81.08
2023-01-19T09:48:52.542Z,80.90
2023-01-19T09:50:59.444Z,80.99
2023-01-19T09:53:13.851Z,80.88
2023-01-19T09:55:22.179Z,80.80
2023-01-19T09:57:27.253Z,80.57
2023-01-19T09:59:32.234Z,80.62
2023-01-19T10:01:48.002Z,80.27
2023-01-19T10:04:03.900Z,80.32
2023-01-19T10:06:12.940Z,80.17
2023-01-19T10:08:24.812Z,79.94
2023-01-19T10:10:29.727Z,80.06
2023-01-19T10:12:42.790Z,80.05
2023-01-19T10:14:54.766Z,79.96
2023-01-19T10:17:05.584Z,79.86
2023-01-19T10:19:23.757Z,79.68
2023-01-19T10:21:31.581Z,79.59
2023-01-19T10:23:42.791Z,79.63
2023-01-19T10:25:47.820Z,79.50
2023-01-19T10:27:51.327Z,79.12
2023-01-19T10:29:55.130Z,79.13
2023-01-19T10:32:08.260Z,79.00
2023-01-19T10:34:21.563Z,78.78
2023-01-19T10:36:31.461Z,78.59
2023-01-19T10:38:37.656Z,78.61
2023-01-19T10:40:49.410Z,78.35
2023-01-19T10:42:52.713Z,78.33
2023-01-19T10:44:56.108Z,78.41
2023-01-19T10:47:01.299Z,78.36
2023-01-19T10:49:04.949Z,78.22
2023-01-19T10:51:09.934Z,78.27
2023-01-19T10:53:22.879Z,78.16
2023-01-19T10:55:29.491Z,78.28
2023-01-19T10:57:36.975Z,78.08
2023-01-19T10:59:50.998Z,78.06
2023-01-19T11:02:15.163Z,77.96
2023-01-19T11:04:23.884Z,78.41
2023-01-19T11:06:29.668Z,78.43
2023-01-19T11:08:34.297Z,78.48
2023-01-19T11:10:39.107Z,78.56
2023-01-19T11:12:43.733Z,78.62
2023-01-19T11:14:48.230Z,78.71
2023-01-19T11:16:54.906Z,78.81
2023-01-19T11:19:02.072Z,78.84
2023-01-19T11:21:08.168Z,78.69
2023-01-19T11:23:22.961Z,78.82
2023-01-19T11:25:32.018Z,78.66
2023-01-19T11:27:38.221Z,78.72
2023-01-19T11:29:41.573Z,78.80
2023-01-19T11:31:45.518Z,79.02
2023-01-19T11:33:54.644Z,79.02
2023-01-19T11:36:04.382Z,78.71
2023-01-19T11:38:23.274Z,78.83
2023-01-19T11:40:27.909Z,78.98
2023-01-19T11:42:36.591Z,78.95
2023-01-19T11:44:45.939Z,79.00
2023-01-19T11:46:56.948Z,79.10
2023-01-19T11:49:06.168Z,79.17
2023-01-19T11:51:15.682Z,79.46
2023-01-19T11:53:24.401Z,79.51
2023-01-19T11:55:37.647Z,79.66
2023-01-19T11:57:46.559Z,79.61
2023-01-19T11:59:52.503Z,79.52
2023-01-19T12:01:59.056Z,79.96
2023-01-19T12:04:08.136Z,79.91
2023-01-19T12:06:15.570Z,80.00
2023-01-19T12:08:24.527Z,79.93
2023-01-19T12:10:32.745Z,80.08
2023-01-19T12:12:40.483Z,79.88
2023-01-19T12:14:51.599Z,79.85
2023-01-19T12:17:00.239Z,79.68
2023-01-19T12:19:07.503Z,79.72
2023-01-19T12:21:10.828Z,79.82
2023-01-19T12:23:26.889Z,79.77
2023-01-19T12:25:45.535Z,79.81
2023-01-19T12:27:51.223Z,79.84
2023-01-19T12:29:56.011Z,79.60
2023-01-19T12:32:18.222Z,79.80
2023-01-19T12:34:41.541Z,79.87
2023-01-19T12:36:44.797Z,79.78
2023-01-19T12:38:52.383Z,79.82
2023-01-19T12:41:21.283Z,79.94
2023-01-19T12:43:24.724Z,79.88
2023-01-19T12:45:33.207Z,80.04
2023-01-19T12:47:37.733Z,79.92
2023-01-19T12:49:43.856Z,79.77
2023-01-19T12:51:47.364Z,79.87
2023-01-19T12:53:54.404Z,79.74
2023-01-19T12:56:06.187Z,79.91
2023-01-19T12:58:18.660Z,79.94
2023-01-19T13:00:34.876Z,79.94
2023-01-19T13:02:47.502Z,80.02
2023-01-19T13:05:10.754Z,80.20
2023-01-19T13:07:17.894Z,80.52
2023-01-19T13:09:30.404Z,80.14
2023-01-19T13:11:34.754Z,80.55
2023-01-19T13:13:42.323Z,80.72
2023-01-19T13:15:45.554Z,80.83
2023-01-19T13:17:52.318Z,80.57
2023-01-19T13:20:01.873Z,80.81
2023-01-19T13:22:38.482Z,80.56
2023-01-19T13:25:07.049Z,80.56
2023-01-19T13:27:14.450Z,80.54
2023-01-19T13:29:26.290Z,80.58
2023-01-19T13:31:35.731Z,80.82
2023-01-19T13:33:46.100Z,80.86
2023-01-19T13:35:56.121Z,80.75
2023-01-19T13:38:00.148Z,80.58
2023-01-19T13:40:03.662Z,80.62
2023-01-19T13:42:15.631Z,80.49
2023-01-19T13:44:25.040Z,80.62
2023-01-19T13:46:29.981Z,80.54
2023-01-19T13:48:34.143Z,80.56
2023-01-19T13:50:39.681Z,80.61
2023-01-19T13:52:45.832Z,80.51
2023-01-19T13:54:50.363Z,80.56
2023-01-19T13:56:55.075Z,80.60
2023-01-19T13:59:10.357Z,80.60
2023-01-19T14:01:26.648Z,80.41
2023-01-19T14:03:36.162Z,80.55
2023-01-19T14:05:41.213Z,80.54
2023-01-19T14:07:44.446Z,80.50
2023-01-19T14:09:47.959Z,80.55
2023-01-19T14:12:12.288Z,80.51
2023-01-19T14:14:33.297Z,80.53
2023-01-19T14:16:38.082Z,80.53
2023-01-19T14:18:41.363Z,80.38
2023-01-19T14:20:54.085Z,80.10
2023-01-19T14:22:57.361Z,80.41
2023-01-19T14:25:23.175Z,80.16
2023-01-19T14:27:26.372Z,80.19
2023-01-19T14:29:32.897Z,80.28
2023-01-19T14:31:44.346Z,80.15
2023-01-19T14:33:49.240Z,80.28
2023-01-19T14:35:52.566Z,80.05
2023-01-19T14:37:55.818Z,80.24
2023-01-19T14:40:04.677Z,80.20
2023-01-19T14:42:08.140Z,80.31
2023-01-19T14:44:12.557Z,80.29
2023-01-19T14:46:19.507Z,80.22
2023-01-19T14:48:25.806Z,80.59
2023-01-19T14:50:31.961Z,80.41
2023-01-19T14:52:39.342Z,80.31
2023-01-19T14:54:46.014Z,80.35
2023-01-19T14:56:49.499Z,80.46
2023-01-19T14:58:52.734Z,80.46
2023-01-19T15:00:56.347Z,80.55
2023-01-19T15:02:59.589Z,80.60
2023-01-19T15:05:04.419Z,80.67
2023-01-19T15:07:08.126Z,80.90
2023-01-19T15:09:13.568Z,80.72
2023-01-19T15:11:24.952Z,80.92
2023-01-19T15:13:29.019Z,81.13
2023-01-19T15:15:34.109Z,81.25
2023-01-19T15:17:37.343Z,81.33
2023-01-19T15:19:40.491Z,81.54
2023-01-19T15:21:46.897Z,81.77
2023-01-19T15:23:50.591Z,81.81
2023-01-19T15:25:54.888Z,81.85
2023-01-19T15:27:59.846Z,82.08
2023-01-19T15:30:03.060Z,82.13
2023-01-19T15:32:06.959Z,82.40
2023-01-19T15:34:13.223Z,82.63
2023-01-19T15:36:18.571Z,82.73
2023-01-19T15:38:23.813Z,82.71
2023-01-19T15:40:27.215Z,82.90
2023-01-19T15:42:30.381Z,82.98
2023-01-19T15:44:33.550Z,83.13
2023-01-19T15:46:36.695Z,83.27
2023-01-19T15:48:39.920Z,83.45
2023-01-19T15:50:44.363Z,83.41
2023-01-19T15:52:47.597Z,83.49
2023-01-19T15:54:52.181Z,83.67
2023-01-19T15:56:55.337Z,83.77
2023-01-19T15:58:59.738Z,83.88
2023-01-19T16:01:03.170Z,84.10
2023-01-19T16:03:06.437Z,84.16
2023-01-19T16:05:10.621Z,84.17
2023-01-19T16:07:14.123Z,84.37
2023-01-19T16:09:20.115Z,84.38
2023-01-19T16:11:24.717Z,84.29
2023-01-19T16:13:30.019Z,84.37
2023-01-19T16:15:35.651Z,84.51
2023-01-19T16:17:38.941Z,84.40
2023-01-19T16:19:42.137Z,84.62
2023-01-19T16:21:45.355Z,84.45
2023-01-19T16:23:48.567Z,84.56
2023-01-19T16:25:59.179Z,84.39
2023-01-19T16:28:03.769Z,84.22
2023-01-19T16:30:08.550Z,84.14
2023-01-19T16:32:12.233Z,83.85
2023-01-19T16:34:15.419Z,83.79
2023-01-19T16:36:23.569Z,83.55
2023-01-19T16:38:26.801Z,83.53
2023-01-19T16:40:30.208Z,83.41
2023-01-19T16:42:33.443Z,83.27
2023-01-19T16:44:38.089Z,83.07
2023-01-19T16:46:42.889Z,83.08
2023-01-19T16:48:46.078Z,82.80
2023-01-19T16:51:01.205Z,82.66
2023-01-19T16:53:05.181Z,82.49
2023-01-19T16:55:11.241Z,82.33
2023-01-19T16:57:14.982Z,82.21
2023-01-19T16:59:19.172Z,82.14
2023-01-19T17:01:24.656Z,82.22
2023-01-19T17:03:28.170Z,81.89
2023-01-19T17:05:31.335Z,81.68
2023-01-19T17:07:34.480Z,81.66
2023-01-19T17:09:37.758Z,81.55
